Esther, Alberta

Past 24 Hour Conditions

This table is a summary of hourly weather conditions for the past 24 hours. This summary includes the following parameters: temperature, humidity, dew point, wind speed and direction, air pressure, visibility and/or wind chill and humidex.
Date / Time
(MDT)
Conditions Temp (°F) Humidity (%) Dew Point (°F) Wind (mph) Pressure (inches) Vis (mi) Humidex
30 July 2014
13:00 N/A 85 35 54 SE 9 30.0 N/A 89
12:00 N/A 82 38 54 ESE 8 30.0 N/A 87
11:00 N/A 80 40 54 E 3 30.1 N/A 85
10:00 N/A 78 37 50 WNW 5 30.1 N/A 80
9:00 N/A 70 60 56 E 5 30.1 N/A *
8:00 N/A 66 67 55 E 5 30.1 N/A *
7:00 N/A 60 80 54 SE 5 30.1 N/A *
6:00 N/A 58 82 52 ENE 4 30.1 N/A *
5:00 N/A 57   85 53 ENE 3 30.1 N/A *
4:00 N/A 61 79 54 SSE 11 gust 17 30.1 N/A *
3:00 N/A 63 75 54 SE 14 30.1 N/A *
2:00 N/A 64 71 55 SE 16 30.1 N/A *
1:00 N/A 65 71 55 SE 15 30.1 N/A *
00:00 N/A 66 69 55 SE 15 30.1 N/A *
29 July 2014
23:00 N/A 67 70 57 SE 14 30.1 N/A *
22:00 N/A 69 69 58 ESE 11 30.1 N/A *
21:00 N/A 71 66 59 ESE 9 30.1 N/A 79
20:00 N/A 76 58 60 E 11 30.1 N/A 84
19:00 N/A 82 45 59 E 13 30.1 N/A 89
18:00 N/A 85 36 55 ESE 12 gust 19 30.1 N/A 89
17:00 N/A 85 34 54 E 15 30.1 N/A 90
16:00 N/A 86   35 55 ESE 12 gust 19 30.1 N/A 90
15:00 N/A 85 35 54 ESE 13 gust 20 30.2 N/A 89
14:00 N/A 83 37 55 ESE 14 gust 21 30.2 N/A 88
13:00 N/A 82 40 55 ESE 17 30.2 N/A 87
N/A
Not available
 ↑ 
Highest temperature
 ↓ 
Lowest temperature
*
Value not significant.

If you require additional historical weather information, please visit Climate Data Online.